Time;durP1;ratioP1;P1;durP2;ratioP2;P2;SDS_P1;SDS_P2;PMS_P1;PMS_P2;Temp;Humidity;BMP_temperature;BMP_pressure;BME280_temperature;BME280_humidity;BME280_pressure;Samples;Min_cycle;Max_cycle;Signal;HPM_P1;HPM_P2
2021/05/18 00:00:52;;;;;;;6.15;0.70;;;21.00;54.20;;;;;;5101306;28;20058;-47
2021/05/18 00:03:26;;;;;;;0.63;0.40;;;21.00;54.30;;;;;;5111721;28;20073;-53
2021/05/18 00:06:00;;;;;;;3.35;0.45;;;21.00;54.10;;;;;;5115913;28;20443;-54
2021/05/18 00:11:42;;;;;;;3.25;0.52;;;21.00;54.10;;;;;;5120710;28;20513;-50
2021/05/18 00:11:47;;;;;;;1.77;0.80;;;21.00;54.20;;;;;;5116655;28;20062;-49
2021/05/18 00:14:21;;;;;;;1.45;0.73;;;21.00;54.30;;;;;;5121652;28;20502;-51
2021/05/18 00:16:55;;;;;;;0.95;0.60;;;21.00;54.20;;;;;;5125470;28;20991;-47
2021/05/18 00:19:29;;;;;;;1.70;0.55;;;21.00;54.10;;;;;;5102883;28;21834;-52
2021/05/18 00:22:02;;;;;;;3.67;0.63;;;21.00;54.20;;;;;;5124742;28;20050;-50
2021/05/18 00:24:34;;;;;;;1.27;0.40;;;21.00;54.20;;;;;;5094924;28;20514;-52
2021/05/18 00:27:07;;;;;;;2.40;0.40;;;21.00;54.30;;;;;;5119701;28;20337;-52
2021/05/18 00:29:40;;;;;;;5.65;1.27;;;21.00;54.30;;;;;;5122381;28;20050;-50
2021/05/18 00:32:12;;;;;;;0.73;0.50;;;21.00;54.40;;;;;;5119635;28;20498;-49
2021/05/18 00:34:45;;;;;;;6.28;0.50;;;21.00;54.40;;;;;;5130763;23;20061;-64
2021/05/18 00:37:18;;;;;;;3.20;1.00;;;21.00;54.20;;;;;;5104441;28;20054;-64
2021/05/18 00:39:52;;;;;;;1.30;0.50;;;21.00;54.20;;;;;;5103374;28;20601;-64
2021/05/18 00:42:25;;;;;;;;;;;21.00;54.20;;;;;;5081134;28;20058;-64
2021/05/18 00:44:58;;;;;;;4.68;1.17;;;21.00;54.20;;;;;;5117598;28;19941;-63
2021/05/18 00:47:30;;;;;;;1.23;0.40;;;21.00;54.20;;;;;;5098521;28;20050;-62
2021/05/18 00:50:03;;;;;;;1.67;0.70;;;21.00;54.20;;;;;;5102781;28;20050;-63
2021/05/18 00:52:37;;;;;;;0.75;0.43;;;21.00;54.20;;;;;;5116758;28;20537;-64
2021/05/18 01:01:06;;;;;;;3.33;0.40;;;21.00;54.20;;;;;;5105068;28;20070;-64
2021/05/18 01:03:39;;;;;;;0.88;0.43;;;21.00;54.20;;;;;;5088340;28;20058;-63
2021/05/18 01:08:56;;;;;;;0.40;0.40;;;21.00;54.10;;;;;;5112878;28;20354;-63
2021/05/18 01:11:31;;;;;;;0.88;0.40;;;20.90;54.10;;;;;;5112463;28;20495;-63
2021/05/18 01:14:12;;;;;;;3.65;0.57;;;20.90;54.10;;;;;;5107780;28;20110;-63
2021/05/18 01:16:47;;;;;;;1.15;0.73;;;21.00;54.10;;;;;;5105287;28;20050;-63
2021/05/18 01:19:24;;;;;;;1.75;0.70;;;21.00;54.10;;;;;;5104146;28;20422;-63
2021/05/18 01:21:59;;;;;;;1.30;0.50;;;20.90;54.10;;;;;;5099430;28;20255;-64
2021/05/18 01:24:37;;;;;;;0.82;0.40;;;20.90;54.00;;;;;;5114257;28;20042;-64
2021/05/18 01:27:10;;;;;;;2.40;0.30;;;20.90;54.00;;;;;;5099632;28;20057;-64
2021/05/18 01:29:42;;;;;;;1.07;0.37;;;20.90;54.00;;;;;;5116227;28;20057;-62
2021/05/18 01:32:21;;;;;;;2.03;0.50;;;20.90;54.00;;;;;;5101296;28;20635;-64
2021/05/18 01:34:54;;;;;;;1.40;0.50;;;20.90;54.10;;;;;;5105901;28;20054;-64
2021/05/18 01:37:27;;;;;;;1.70;0.98;;;20.90;54.10;;;;;;5112494;28;20059;-64
2021/05/18 01:42:57;;;;;;;1.15;0.40;;;20.90;54.00;;;;;;5092648;28;20400;-63
2021/05/18 01:45:31;;;;;;;1.00;0.70;;;20.90;54.10;;;;;;5094926;28;20061;-63
2021/05/18 01:48:09;;;;;;;1.27;0.50;;;20.90;54.00;;;;;;5103036;28;20046;-63
2021/05/18 01:50:47;;;;;;;3.78;0.57;;;20.90;54.00;;;;;;5092362;28;20057;-63
2021/05/18 01:53:21;;;;;;;2.10;0.40;;;20.90;54.00;;;;;;5091106;28;20061;-63
2021/05/18 01:58:28;;;;;;;1.90;0.50;;;20.90;54.00;;;;;;5121273;28;20050;-63
2021/05/18 02:01:23;;;;;;;1.45;0.50;;;20.90;53.90;;;;;;5099735;28;20058;-63
2021/05/18 02:03:56;;;;;;;1.50;0.60;;;20.90;53.90;;;;;;5102524;28;20054;-63
2021/05/18 02:06:29;;;;;;;4.40;0.53;;;20.90;53.90;;;;;;5109117;28;20069;-63
2021/05/18 02:09:10;;;;;;;1.45;0.43;;;20.90;53.90;;;;;;5118565;28;20057;-62
2021/05/18 02:11:48;;;;;;;0.65;0.40;;;20.90;54.00;;;;;;5084678;28;20817;-64
2021/05/18 02:14:29;;;;;;;2.70;0.50;;;20.90;54.00;;;;;;5102953;28;20053;-63
2021/05/18 02:25:55;;;;;;;2.45;0.30;;;20.80;53.80;;;;;;5121194;28;20050;-63
2021/05/18 02:28:39;;;;;;;;;;;20.90;53.80;;;;;;5106308;28;20043;-63
2021/05/18 02:31:12;;;;;;;1.58;0.50;;;20.90;53.90;;;;;;5114113;28;19929;-63
2021/05/18 02:33:51;;;;;;;2.78;0.40;;;20.90;53.90;;;;;;5099977;28;20050;-63
2021/05/18 02:36:28;;;;;;;1.88;0.32;;;20.90;53.90;;;;;;5086944;28;20069;-63
2021/05/18 02:39:01;;;;;;;1.65;0.40;;;20.90;53.90;;;;;;5117393;28;21200;-63
2021/05/18 02:41:33;;;;;;;4.07;0.60;;;20.80;53.90;;;;;;5094329;28;20423;-64
2021/05/18 02:44:18;;;;;;;;;;;20.90;53.90;;;;;;5085358;28;20058;-63
2021/05/18 02:49:53;;;;;;;1.70;0.40;;;20.80;54.30;;;;;;5106668;28;20074;-65
2021/05/18 02:52:27;;;;;;;2.35;0.40;;;20.80;53.90;;;;;;5101420;28;20432;-64
2021/05/18 02:55:00;;;;;;;;;;;20.80;54.00;;;;;;5080985;28;20070;-63
2021/05/18 02:57:43;;;;;;;0.98;0.40;;;20.80;53.90;;;;;;5091834;28;19930;-65
2021/05/18 03:00:19;;;;;;;1.50;0.60;;;20.80;53.90;;;;;;5115217;28;20050;-64
2021/05/18 03:02:52;;;;;;;1.65;0.55;;;20.80;54.00;;;;;;5106270;28;20043;-63
2021/05/18 03:05:27;;;;;;;4.15;0.40;;;20.80;53.90;;;;;;5087474;28;20050;-64
2021/05/18 03:08:05;;;;;;;0.93;0.40;;;20.80;54.00;;;;;;5092945;28;20057;-64
2021/05/18 03:10:38;;;;;;;1.52;0.73;;;20.80;54.00;;;;;;5100961;28;20410;-63
2021/05/18 03:13:11;;;;;;;4.45;0.82;;;20.80;54.10;;;;;;5106275;28;20061;-63
2021/05/18 03:15:44;;;;;;;0.88;0.50;;;20.80;54.10;;;;;;5124735;28;20038;-63
2021/05/18 03:18:16;;;;;;;3.22;0.40;;;20.80;54.00;;;;;;5103786;28;21712;-63
2021/05/18 03:20:49;;;;;;;0.40;0.40;;;20.80;54.00;;;;;;5117005;28;20070;-63
2021/05/18 03:23:21;;;;;;;0.80;0.50;;;20.80;53.90;;;;;;5089261;28;20411;-63
2021/05/18 03:25:54;;;;;;;0.60;0.50;;;20.80;54.00;;;;;;5097934;28;20510;-63
2021/05/18 03:28:27;;;;;;;1.80;0.50;;;20.80;54.00;;;;;;5117735;28;20054;-63
2021/05/18 03:36:23;;;;;;;2.35;0.45;;;20.80;54.00;;;;;;5123166;28;20046;-62
2021/05/18 03:38:57;;;;;;;2.10;0.70;;;20.80;54.10;;;;;;5090577;28;20050;-63
2021/05/18 03:41:41;;;;;;;3.03;0.40;;;20.80;54.10;;;;;;5102135;28;20073;-63
2021/05/18 03:53:31;;;;;;;2.50;0.30;;;20.80;54.00;;;;;;5090726;28;20117;-63
2021/05/18 04:04:23;;;;;;;1.23;0.30;;;20.80;53.90;;;;;;5109780;28;20454;-63
2021/05/18 04:18:14;;;;;;;0.80;0.40;;;20.70;53.90;;;;;;5118261;28;20057;-63
2021/05/18 04:43:20;;;;;;;4.68;0.40;;;20.80;53.90;;;;;;5106419;28;20069;-63
2021/05/18 04:51:43;;;;;;;3.60;0.95;;;20.90;53.90;;;;;;5050698;28;20046;-63
2021/05/18 05:00:04;;;;;;;2.50;0.50;;;21.00;53.80;;;;;;5101766;28;20089;-63
2021/05/18 05:16:07;;;;;;;6.20;0.95;;;21.10;54.00;;;;;;5117536;28;20062;-64
2021/05/18 05:18:40;;;;;;;8.73;0.95;;;21.10;53.90;;;;;;5095710;28;20058;-63
2021/05/18 05:21:12;;;;;;;6.53;1.05;;;21.20;54.10;;;;;;5094940;28;20058;-64
2021/05/18 05:23:46;;;;;;;6.68;1.10;;;21.20;54.00;;;;;;5096716;28;20058;-64
2021/05/18 05:26:18;;;;;;;4.43;0.90;;;21.20;54.00;;;;;;5086829;28;20058;-64
2021/05/18 05:28:51;;;;;;;6.88;1.15;;;21.20;53.90;;;;;;5114269;28;20395;-63
2021/05/18 05:31:24;;;;;;;6.78;0.90;;;21.20;53.90;;;;;;5107517;28;20499;-65
2021/05/18 05:33:56;;;;;;;3.27;0.60;;;21.20;53.80;;;;;;5090280;28;20058;-65
2021/05/18 05:37:30;;;;;;;17.63;2.50;;;21.30;52.70;;;;;;5246049;27;20371;-48
2021/05/18 05:40:05;;;;;;;25.30;1.60;;;21.40;52.80;;;;;;5216890;28;20044;-49
2021/05/18 05:42:37;;;;;;;13.10;1.65;;;21.60;52.40;;;;;;5208557;28;20228;-46
2021/05/18 05:45:10;;;;;;;15.00;1.52;;;21.80;52.20;;;;;;5196745;28;20726;-48
2021/05/18 05:47:43;;;;;;;9.35;1.02;;;21.90;52.00;;;;;;5198431;28;20541;-47
2021/05/18 05:50:15;;;;;;;8.32;1.15;;;22.00;51.80;;;;;;5202357;28;21213;-47
2021/05/18 05:52:48;;;;;;;15.23;1.35;;;22.00;51.80;;;;;;5201632;28;20056;-48
2021/05/18 05:55:20;;;;;;;20.17;1.25;;;22.10;51.70;;;;;;5200493;28;20433;-48
2021/05/18 05:57:53;;;;;;;4.32;0.90;;;22.10;51.60;;;;;;5202721;28;20045;-46
2021/05/18 06:00:26;;;;;;;8.43;1.00;;;22.20;51.90;;;;;;5202446;28;20193;-49
2021/05/18 06:02:59;;;;;;;6.50;1.00;;;22.20;51.60;;;;;;5196058;28;20447;-47
2021/05/18 06:05:31;;;;;;;12.07;1.00;;;22.30;51.60;;;;;;5192719;28;20049;-46
2021/05/18 06:08:04;;;;;;;13.95;1.92;;;22.30;51.50;;;;;;5184705;28;20052;-48
2021/05/18 06:10:41;;;;;;;9.15;1.52;;;22.30;51.50;;;;;;5199908;28;20540;-49
2021/05/18 06:13:39;;;;;;;7.65;1.45;;;22.40;51.50;;;;;;5197476;28;20053;-47
2021/05/18 06:49:45;;;;;;;7.90;1.02;;;22.80;51.30;;;;;;5208593;28;20237;-50
2021/05/18 06:52:18;;;;;;;6.43;1.10;;;22.80;51.30;;;;;;5200395;28;20049;-50
2021/05/18 06:54:50;;;;;;;6.18;0.90;;;22.80;51.30;;;;;;5207572;28;20044;-53
2021/05/18 06:57:47;;;;;;;4.57;0.88;;;22.80;51.30;;;;;;5209252;28;20604;-49
2021/05/18 07:00:20;;;;;;;6.75;1.27;;;22.80;51.30;;;;;;5204381;28;20076;-47
2021/05/18 07:02:56;;;;;;;;;;;22.80;51.60;;;;;;5191779;28;20053;-48
2021/05/18 07:08:55;;;;;;;8.32;1.00;;;22.80;51.20;;;;;;5208377;28;21823;-47
2021/05/18 07:11:22;;;;;;;4.40;0.77;;;22.80;51.30;;;;;;5212393;28;20058;-49
2021/05/18 07:13:54;;;;;;;3.28;0.70;;;22.90;51.30;;;;;;5200007;28;20053;-50
2021/05/18 07:16:27;;;;;;;6.47;0.90;;;22.90;51.40;;;;;;5196704;28;20079;-48
2021/05/18 07:19:00;;;;;;;5.68;0.70;;;22.90;51.30;;;;;;5194632;28;20045;-50
2021/05/18 07:21:32;;;;;;;4.20;0.77;;;22.90;51.40;;;;;;5205619;28;20044;-48
2021/05/18 07:24:11;;;;;;;4.55;1.05;;;23.00;51.40;;;;;;5197574;28;20047;-47
2021/05/18 07:26:45;;;;;;;6.03;0.98;;;23.00;51.30;;;;;;5203457;28;20055;-50
2021/05/18 07:29:18;;;;;;;5.47;1.10;;;23.00;51.20;;;;;;5197619;28;20045;-49
2021/05/18 07:31:50;;;;;;;5.15;1.48;;;23.00;51.30;;;;;;5200092;28;20302;-47
2021/05/18 07:34:23;;;;;;;6.20;1.10;;;23.00;51.30;;;;;;5208466;28;20045;-50
2021/05/18 07:36:56;;;;;;;4.53;0.90;;;23.10;51.40;;;;;;5216966;28;20044;-48
2021/05/18 07:39:29;;;;;;;3.10;0.60;;;23.00;51.10;;;;;;5202756;28;20045;-50
2021/05/18 07:42:01;;;;;;;8.13;1.25;;;23.10;51.10;;;;;;5219660;28;20081;-51
2021/05/18 07:44:34;;;;;;;6.75;1.02;;;23.10;51.10;;;;;;5209637;28;20044;-48
2021/05/18 07:47:07;;;;;;;8.23;1.23;;;23.10;51.10;;;;;;5213093;28;20067;-48
2021/05/18 07:49:43;;;;;;;5.10;0.90;;;23.10;51.10;;;;;;5222034;28;20059;-50
2021/05/18 08:06:32;;;;;;;9.32;0.70;;;23.20;51.00;;;;;;5223703;28;20303;-52
2021/05/18 08:09:05;;;;;;;5.03;0.80;;;23.20;50.90;;;;;;5220827;28;20051;-47
2021/05/18 08:11:37;;;;;;;8.20;0.87;;;23.20;51.60;;;;;;5208764;28;20059;-49
2021/05/18 08:21:11;;;;;;;3.60;1.02;;;23.20;51.00;;;;;;5192818;28;20053;-50
2021/05/18 09:33:33;;;;;;;1.65;1.00;;;23.40;50.40;;;;;;5167259;28;20703;-51
2021/05/18 09:37:38;;;;;;;2.47;1.42;;;23.40;50.30;;;;;;5185289;28;20807;-52
2021/05/18 10:34:25;;;;;;;;;;;23.70;65.40;;;;;;5177021;28;20045;-55
2021/05/18 10:37:35;;;;;;;7.30;1.60;;;23.60;57.80;;;;;;5187805;28;19924;-50
2021/05/18 10:40:23;;;;;;;11.93;1.73;;;23.50;58.40;;;;;;5191361;28;20040;-49
2021/05/18 10:43:28;;;;;;;8.75;2.15;;;23.40;58.70;;;;;;5131654;28;20169;-49
2021/05/18 10:46:05;;;;;;;;;;;23.30;58.40;;;;;;5181494;28;20391;-49
2021/05/18 10:48:52;;;;;;;11.23;1.67;;;23.20;58.00;;;;;;5171992;28;22349;-50
2021/05/18 10:51:53;;;;;;;10.30;1.95;;;23.20;64.80;;;;;;5170052;28;20044;-48
2021/05/18 10:54:34;;;;;;;4.03;1.10;;;23.20;61.30;;;;;;5180758;28;20045;-52
2021/05/18 10:57:13;;;;;;;10.95;1.38;;;23.20;64.10;;;;;;5175090;28;20433;-48
2021/05/18 11:00:00;;;;;;;11.02;1.70;;;23.20;61.10;;;;;;5172949;28;20718;-46
2021/05/18 11:02:34;;;;;;;6.53;1.08;;;23.30;61.30;;;;;;5174111;28;20601;-47
2021/05/18 11:05:12;;;;;;;5.10;1.83;;;23.30;60.70;;;;;;5180175;28;20041;-50
2021/05/18 11:07:46;;;;;;;16.52;1.58;;;23.30;60.10;;;;;;5175965;28;20049;-50
2021/05/18 11:10:20;;;;;;;9.95;1.38;;;23.40;60.10;;;;;;5175956;28;20044;-47
2021/05/18 11:12:54;;;;;;;5.75;1.20;;;23.40;58.40;;;;;;5168052;28;20046;-49
2021/05/18 11:15:26;;;;;;;8.98;1.10;;;23.40;59.50;;;;;;5177136;28;20519;-50
2021/05/18 11:17:59;;;;;;;7.10;1.35;;;23.40;60.00;;;;;;5177875;28;20045;-49
2021/05/18 11:26:03;;;;;;;4.90;1.73;;;23.30;58.30;;;;;;5180334;28;20160;-47
2021/05/18 11:28:43;;;;;;;5.47;1.10;;;23.30;58.20;;;;;;5176021;28;20044;-47
2021/05/18 11:31:19;;;;;;;5.75;1.20;;;23.30;58.80;;;;;;5178925;28;20142;-49
2021/05/18 11:34:00;;;;;;;7.88;1.10;;;23.20;58.80;;;;;;5176933;28;20041;-53
2021/05/18 11:36:39;;;;;;;4.60;0.80;;;23.30;58.50;;;;;;5178536;28;20049;-48
2021/05/18 11:39:16;;;;;;;7.72;1.63;;;23.20;58.60;;;;;;5171787;28;20055;-47
2021/05/18 11:41:53;;;;;;;3.45;0.90;;;23.10;59.20;;;;;;5184041;28;20045;-46
2021/05/18 11:44:34;;;;;;;4.28;1.08;;;23.20;58.50;;;;;;5174768;28;20553;-46
2021/05/18 11:47:06;;;;;;;3.72;0.90;;;23.10;58.10;;;;;;5173823;28;20060;-48
2021/05/18 11:49:46;;;;;;;7.57;1.37;;;23.10;59.30;;;;;;4134319;28;10000599;-48
2021/05/18 11:52:19;;;;;;;4.25;1.20;;;23.10;57.80;;;;;;5176168;28;20053;-48
2021/05/18 11:54:52;;;;;;;3.03;0.85;;;23.10;58.60;;;;;;5179493;28;20520;-49
2021/05/18 11:57:24;;;;;;;2.80;0.77;;;23.00;58.20;;;;;;5173685;28;20045;-46
2021/05/18 11:59:57;;;;;;;3.43;0.90;;;23.00;57.60;;;;;;5168324;28;20052;-46
2021/05/18 12:02:29;;;;;;;3.63;0.93;;;23.00;57.70;;;;;;5174808;28;20357;-49
2021/05/18 12:05:05;;;;;;;3.22;0.55;;;23.00;57.60;;;;;;5174267;28;20049;-50
2021/05/18 12:07:38;;;;;;;5.13;0.80;;;23.00;57.30;;;;;;5173709;28;20049;-47
2021/05/18 12:10:11;;;;;;;1.77;0.60;;;23.00;57.30;;;;;;5165294;28;20045;-48
2021/05/18 12:12:45;;;;;;;4.20;0.77;;;22.90;57.70;;;;;;5174302;28;20615;-53
2021/05/18 12:15:18;;;;;;;3.00;0.75;;;22.90;57.40;;;;;;5178420;28;20523;-46
2021/05/18 12:17:56;;;;;;;6.47;0.73;;;22.90;57.20;;;;;;5171132;28;20421;-46
2021/05/18 12:20:28;;;;;;;3.20;0.60;;;22.90;56.90;;;;;;4837069;28;10000572;-47
2021/05/18 12:23:10;;;;;;;1.37;0.60;;;22.90;56.80;;;;;;5148939;28;20045;-48
2021/05/18 12:25:43;;;;;;;4.10;0.80;;;22.90;56.50;;;;;;5159476;28;20061;-48
2021/05/18 12:28:19;;;;;;;3.28;0.68;;;23.00;56.90;;;;;;5155731;28;20068;-50
2021/05/18 12:30:52;;;;;;;3.75;0.55;;;23.00;56.50;;;;;;5122362;28;20049;-50
2021/05/18 12:33:37;;;;;;;8.90;1.35;;;23.00;56.50;;;;;;5115330;28;20057;-48
2021/05/18 12:36:10;;;;;;;2.35;0.70;;;23.00;56.10;;;;;;5157196;28;20755;-48
2021/05/18 12:38:43;;;;;;;6.38;0.98;;;23.00;56.00;;;;;;5151937;28;20040;-49
2021/05/18 12:41:16;;;;;;;1.53;0.60;;;23.10;56.60;;;;;;5139751;28;20050;-46
2021/05/18 12:43:51;;;;;;;9.50;1.08;;;23.00;56.60;;;;;;5178989;28;20046;-44
2021/05/18 12:46:23;;;;;;;6.35;0.80;;;23.00;56.30;;;;;;5165806;28;20915;-51
2021/05/18 12:48:56;;;;;;;5.03;1.17;;;23.00;56.60;;;;;;5171770;28;20073;-49
2021/05/18 12:51:29;;;;;;;4.55;0.77;;;23.00;56.60;;;;;;5196985;28;20526;-48
2021/05/18 12:54:04;;;;;;;14.50;2.58;;;23.00;56.30;;;;;;5184092;28;20370;-50
2021/05/18 12:56:36;;;;;;;6.15;1.00;;;23.00;56.30;;;;;;5186507;28;20053;-49
2021/05/18 12:59:10;;;;;;;3.25;0.82;;;23.00;55.90;;;;;;5178918;28;20048;-47
2021/05/18 13:01:45;;;;;;;14.45;1.23;;;23.00;56.00;;;;;;5160916;28;20422;-50
2021/05/18 13:04:19;;;;;;;7.88;1.38;;;23.00;55.90;;;;;;5209903;28;20056;-47
2021/05/18 13:06:51;;;;;;;8.05;0.82;;;23.00;56.00;;;;;;5187580;28;20623;-49
2021/05/18 13:09:26;;;;;;;11.40;1.13;;;23.00;56.00;;;;;;5191879;28;20060;-49
2021/05/18 13:12:12;;;;;;;7.10;1.60;;;23.10;56.00;;;;;;5195095;28;20056;-46
2021/05/18 13:14:59;;;;;;;5.68;0.80;;;23.00;55.80;;;;;;5179577;28;20307;-48
2021/05/18 13:17:31;;;;;;;6.72;0.90;;;23.00;55.90;;;;;;5181844;28;20049;-48
2021/05/18 13:20:12;;;;;;;7.97;2.13;;;23.00;55.90;;;;;;5168322;28;20678;-48
2021/05/18 13:22:49;;;;;;;10.20;1.50;;;23.00;56.00;;;;;;5157105;28;20052;-47
2021/05/18 13:28:13;;;;;;;15.85;1.48;;;23.00;56.40;;;;;;5176646;28;20598;-48
2021/05/18 13:30:47;;;;;;;14.57;1.42;;;23.10;56.00;;;;;;5174421;28;20049;-48
2021/05/18 13:33:19;;;;;;;;;;;23.20;56.10;;;;;;5155697;28;20053;-46
2021/05/18 13:35:52;;;;;;;12.13;1.20;;;23.20;55.80;;;;;;5174474;28;19936;-49
2021/05/18 13:38:25;;;;;;;10.75;1.70;;;23.30;55.80;;;;;;5174464;28;20049;-47
2021/05/18 13:40:57;;;;;;;10.40;1.33;;;23.40;55.60;;;;;;5173854;28;20485;-49
2021/05/18 13:43:32;;;;;;;4.03;0.80;;;23.40;55.40;;;;;;5173060;28;21292;-47
2021/05/18 13:46:08;;;;;;;17.02;1.35;;;23.40;55.40;;;;;;5174080;28;20065;-51
2021/05/18 13:48:40;;;;;;;8.98;1.52;;;23.40;55.40;;;;;;5174930;28;20087;-46
2021/05/18 13:51:16;;;;;;;12.57;2.22;;;23.40;55.50;;;;;;5180394;28;20045;-48
2021/05/18 13:53:52;;;;;;;6.68;1.38;;;23.40;55.50;;;;;;5175613;28;20053;-47
2021/05/18 13:56:25;;;;;;;11.87;1.43;;;23.30;78.70;;;;;;5180811;28;20049;-58
2021/05/18 13:58:59;;;;;;;7.20;1.25;;;22.80;58.50;;;;;;5181423;28;20622;-59
2021/05/18 14:01:31;;;;;;;7.55;1.40;;;22.70;57.30;;;;;;5179413;28;20049;-57
2021/05/18 14:04:04;;;;;;;13.00;1.17;;;22.70;57.30;;;;;;5176224;28;20532;-59
2021/05/18 14:07:01;;;;;;;9.00;1.48;;;22.70;57.10;;;;;;5170223;28;20049;-57
2021/05/18 14:09:42;;;;;;;8.73;1.55;;;22.70;57.10;;;;;;5171859;28;20410;-59
2021/05/18 14:12:14;;;;;;;5.72;1.17;;;22.70;57.10;;;;;;5176185;28;20049;-57
2021/05/18 14:14:49;;;;;;;9.77;1.52;;;22.70;57.00;;;;;;5179236;28;20068;-59
2021/05/18 14:17:21;;;;;;;5.20;1.00;;;22.70;57.00;;;;;;5185686;28;20494;-56
2021/05/18 14:19:55;;;;;;;7.78;1.50;;;22.70;57.20;;;;;;5174143;28;20049;-58
2021/05/18 14:22:28;;;;;;;7.30;0.90;;;22.70;57.00;;;;;;4137438;28;10000018;-56
2021/05/18 14:27:37;;;;;;;5.50;1.10;;;22.80;57.10;;;;;;5194395;28;20520;-59
2021/05/18 14:30:12;;;;;;;6.97;1.10;;;22.70;56.90;;;;;;5182905;28;20480;-59
2021/05/18 14:32:45;;;;;;;9.93;1.20;;;22.70;57.00;;;;;;5173790;28;20064;-57
2021/05/18 14:35:18;;;;;;;11.15;1.20;;;22.70;57.10;;;;;;5185600;28;20049;-59
2021/05/18 14:37:56;;;;;;;8.05;1.17;;;22.70;57.10;;;;;;5172329;28;20041;-58
2021/05/18 14:46:06;;;;;;;8.60;1.55;;;22.80;56.90;;;;;;5179835;28;20045;-54
2021/05/18 14:55:06;;;;;;;5.43;0.90;;;22.80;57.00;;;;;;5164868;28;20500;-55
2021/05/18 14:57:27;;;;;;;12.55;1.48;;;22.70;57.00;;;;;;5149464;28;20041;-54
2021/05/18 15:00:00;;;;;;;4.40;0.82;;;22.70;57.20;;;;;;5161817;28;20434;-51
2021/05/18 15:02:33;;;;;;;8.90;1.42;;;22.70;57.10;;;;;;5165250;28;20041;-51
2021/05/18 15:05:07;;;;;;;7.07;1.37;;;22.60;57.00;;;;;;5158604;28;21232;-52
2021/05/18 15:07:41;;;;;;;6.40;1.20;;;22.70;57.10;;;;;;5158834;28;20622;-52
2021/05/18 15:10:14;;;;;;;10.77;1.23;;;22.70;56.90;;;;;;5165637;28;20049;-54
2021/05/18 15:12:47;;;;;;;8.50;1.70;;;22.60;56.90;;;;;;5191340;28;20045;-57
2021/05/18 15:15:20;;;;;;;7.27;1.10;;;22.60;56.80;;;;;;5178523;28;20509;-54
2021/05/18 15:17:56;;;;;;;9.63;1.48;;;22.50;56.60;;;;;;5163878;28;20083;-53
2021/05/18 15:20:29;;;;;;;8.63;1.20;;;22.50;56.50;;;;;;5161532;28;20061;-50
2021/05/18 15:23:02;;;;;;;10.20;1.20;;;22.50;56.40;;;;;;5171008;28;20052;-54
2021/05/18 15:25:35;;;;;;;8.63;2.17;;;22.50;56.30;;;;;;5169608;28;21025;-54
2021/05/18 15:28:08;;;;;;;13.23;1.73;;;22.50;56.30;;;;;;5170190;28;20049;-53
2021/05/18 15:30:40;;;;;;;10.60;1.15;;;22.30;54.70;;;;;;5178908;28;20307;-53
2021/05/18 15:33:13;;;;;;;10.27;1.33;;;22.30;55.50;;;;;;5178587;28;20052;-52
2021/05/18 15:35:46;;;;;;;10.25;1.75;;;22.30;55.30;;;;;;5162705;28;20693;-52
2021/05/18 15:38:19;;;;;;;12.20;1.83;;;22.30;55.40;;;;;;5177730;28;20053;-51
2021/05/18 15:40:52;;;;;;;9.63;1.47;;;22.40;55.30;;;;;;5157311;28;20056;-52
2021/05/18 15:43:24;;;;;;;9.00;0.90;;;22.40;55.30;;;;;;5159359;28;20059;-55
2021/05/18 15:45:58;;;;;;;6.45;1.33;;;22.40;55.20;;;;;;5162406;28;20056;-54
2021/05/18 15:48:32;;;;;;;7.40;1.10;;;22.30;55.10;;;;;;5172818;28;20052;-56
2021/05/18 15:51:04;;;;;;;9.55;1.23;;;22.30;55.10;;;;;;5173142;28;20311;-54
2021/05/18 15:53:37;;;;;;;4.82;0.80;;;22.30;55.00;;;;;;5173458;28;20044;-52
2021/05/18 15:56:10;;;;;;;3.37;1.10;;;22.30;55.00;;;;;;5183022;28;20055;-53
2021/05/18 15:58:44;;;;;;;6.13;0.70;;;22.30;55.00;;;;;;5173758;28;20045;-52
2021/05/18 16:01:17;;;;;;;5.30;0.60;;;22.30;54.80;;;;;;5159357;28;20451;-53
2021/05/18 16:03:50;;;;;;;8.98;1.08;;;22.30;54.90;;;;;;5151849;28;20473;-55
2021/05/18 16:06:23;;;;;;;5.03;1.10;;;22.30;55.20;;;;;;5163194;28;20055;-49
2021/05/18 16:11:28;;;;;;;17.55;2.20;;;22.30;55.80;;;;;;5159347;28;20679;-54
2021/05/18 16:14:00;;;;;;;7.00;1.23;;;22.30;55.80;;;;;;5165888;28;20053;-50
2021/05/18 16:16:34;;;;;;;7.40;0.95;;;22.40;55.80;;;;;;5158138;28;21757;-54
2021/05/18 16:19:06;;;;;;;9.75;1.60;;;22.40;56.10;;;;;;5170818;28;20052;-51
2021/05/18 16:21:39;;;;;;;13.23;1.27;;;22.40;56.30;;;;;;5174008;28;20699;-56
2021/05/18 16:24:11;;;;;;;7.38;1.10;;;22.30;56.40;;;;;;5163000;28;20050;-52
2021/05/18 16:26:45;;;;;;;10.47;1.80;;;22.30;56.40;;;;;;5165251;28;20459;-53
2021/05/18 16:29:18;;;;;;;14.88;1.65;;;22.30;56.50;;;;;;5175776;28;20040;-57
2021/05/18 16:31:51;;;;;;;7.87;1.40;;;22.30;56.60;;;;;;5162978;28;20060;-54
2021/05/18 16:34:27;;;;;;;;;;;22.30;56.80;;;;;;5173080;28;20811;-52
2021/05/18 16:36:59;;;;;;;8.70;1.20;;;22.40;56.70;;;;;;5161788;28;20449;-55
2021/05/18 16:39:32;;;;;;;9.25;1.25;;;22.40;56.70;;;;;;5183490;28;20050;-53
2021/05/18 16:42:05;;;;;;;5.53;1.10;;;22.30;57.00;;;;;;5189486;28;20041;-51
2021/05/18 16:44:37;;;;;;;8.60;1.57;;;22.40;57.10;;;;;;5180008;28;20476;-55
2021/05/18 16:47:22;;;;;;;2.92;1.10;;;22.30;57.10;;;;;;5174164;28;20064;-53
2021/05/18 16:49:56;;;;;;;9.98;1.50;;;21.50;50.50;;;;;;5179699;28;20053;-51
2021/05/18 16:52:28;;;;;;;7.05;1.40;;;21.00;54.00;;;;;;5183656;28;20080;-52
2021/05/18 16:55:01;;;;;;;7.70;1.55;;;21.30;54.60;;;;;;5184978;28;20068;-54
2021/05/18 16:57:33;;;;;;;7.82;1.38;;;21.60;54.70;;;;;;5184582;28;20053;-51
2021/05/18 17:00:09;;;;;;;7.88;1.13;;;21.70;54.60;;;;;;5183509;28;20060;-51
2021/05/18 17:02:42;;;;;;;6.85;1.48;;;21.90;54.70;;;;;;5177391;28;20068;-52
2021/05/18 17:05:14;;;;;;;2.47;1.17;;;22.00;54.80;;;;;;5188107;28;20722;-54
2021/05/18 17:07:47;;;;;;;6.22;1.20;;;22.00;54.70;;;;;;5184668;28;20052;-50
2021/05/18 17:10:22;;;;;;;4.68;1.48;;;22.00;54.80;;;;;;5169962;28;20057;-54
2021/05/18 17:12:55;;;;;;;5.55;1.17;;;22.00;54.90;;;;;;5172061;28;20049;-53
2021/05/18 17:15:28;;;;;;;8.73;1.23;;;22.00;55.40;;;;;;5175989;28;20053;-51
2021/05/18 17:18:01;;;;;;;;;;;22.00;55.20;;;;;;5185119;28;20056;-50
2021/05/18 17:20:36;;;;;;;6.65;1.00;;;22.10;55.00;;;;;;5182410;28;19932;-49
2021/05/18 17:23:09;;;;;;;41.35;1.83;;;22.10;55.10;;;;;;5169505;28;20061;-51
2021/05/18 17:25:41;;;;;;;6.63;1.10;;;22.00;55.10;;;;;;5167478;28;20045;-53
2021/05/18 17:28:14;;;;;;;4.38;1.00;;;22.00;55.10;;;;;;5168840;28;20155;-52
2021/05/18 17:30:47;;;;;;;5.67;1.30;;;22.00;55.20;;;;;;5159160;28;20045;-50
2021/05/18 17:33:19;;;;;;;4.57;1.08;;;22.00;55.80;;;;;;5172088;28;20307;-48
2021/05/18 17:35:52;;;;;;;4.53;1.10;;;22.00;55.10;;;;;;5170278;28;20044;-53
2021/05/18 17:38:25;;;;;;;2.78;0.98;;;22.00;55.10;;;;;;5162454;28;20481;-51
2021/05/18 17:40:57;;;;;;;7.00;0.93;;;22.00;55.10;;;;;;5163259;28;20049;-50
2021/05/18 17:43:31;;;;;;;3.92;1.17;;;22.00;55.20;;;;;;5173910;28;20055;-49
2021/05/18 17:46:09;;;;;;;5.25;1.52;;;22.00;55.30;;;;;;5172606;28;20052;-53
2021/05/18 17:48:42;;;;;;;5.15;0.90;;;22.00;55.30;;;;;;5169996;28;20132;-49
2021/05/18 17:51:19;;;;;;;3.88;1.02;;;22.10;55.30;;;;;;4494379;28;10000425;-52
2021/05/18 17:53:52;;;;;;;10.70;1.42;;;22.10;55.30;;;;;;5174415;28;20048;-49
2021/05/18 17:56:25;;;;;;;4.13;1.10;;;22.10;55.40;;;;;;5182150;28;20049;-53
2021/05/18 17:58:57;;;;;;;3.05;1.10;;;22.00;55.50;;;;;;5172080;28;20056;-54
2021/05/18 18:01:31;;;;;;;5.37;1.30;;;22.10;56.50;;;;;;5161045;28;20049;-51
2021/05/18 18:04:04;;;;;;;;;;;22.00;55.70;;;;;;5170863;28;20533;-50
2021/05/18 18:06:37;;;;;;;6.13;1.10;;;22.00;55.70;;;;;;5165220;28;19929;-48
2021/05/18 18:09:09;;;;;;;7.38;1.35;;;22.10;55.70;;;;;;5158820;28;20049;-53
2021/05/18 18:11:42;;;;;;;1.83;1.00;;;22.10;57.20;;;;;;5147978;28;20048;-56
2021/05/18 18:14:15;;;;;;;14.07;1.50;;;22.20;55.60;;;;;;5166260;28;20042;-50
2021/05/18 18:16:48;;;;;;;7.60;1.25;;;22.20;55.70;;;;;;5181052;28;20040;-51
2021/05/18 18:19:20;;;;;;;14.70;1.05;;;22.20;55.50;;;;;;5150864;28;20643;-53
2021/05/18 18:21:53;;;;;;;7.30;1.05;;;22.20;55.40;;;;;;5153492;28;20057;-52
2021/05/18 18:24:26;;;;;;;4.00;1.30;;;22.20;55.40;;;;;;5164325;28;20056;-51
2021/05/18 18:26:58;;;;;;;4.57;1.48;;;22.20;55.40;;;;;;5172736;28;20044;-49
2021/05/18 18:29:31;;;;;;;4.47;1.25;;;22.20;55.40;;;;;;5168151;28;20446;-52
2021/05/18 18:32:04;;;;;;;8.02;1.17;;;22.20;55.30;;;;;;5182344;28;20512;-51
2021/05/18 18:34:37;;;;;;;9.30;1.47;;;22.20;55.20;;;;;;5169552;28;20044;-52
2021/05/18 18:37:13;;;;;;;5.70;1.10;;;22.10;55.10;;;;;;5168733;28;20053;-53
2021/05/18 18:39:45;;;;;;;6.35;1.00;;;22.20;55.10;;;;;;5172587;28;20060;-52
2021/05/18 18:42:18;;;;;;;4.65;0.88;;;22.10;55.00;;;;;;5155465;28;20049;-52
2021/05/18 18:44:51;;;;;;;5.35;1.20;;;22.20;54.80;;;;;;5177730;28;20041;-50